Vestmannaeyjar, Iceland
Current Conditions -  °F | °C
As of 3:00 AM on Sunday 26 Oct 2014 (Local Time) from BIRK Reporting Station
Scattered Clouds Scattered Clouds  
Wind Chill: 34°   Ceiling: Unl
Heat Index: 34°   Visibility: 6mi
Dew Point: 27°   Wind: 2mph
Humidity: 75%   Direction: NA
Pressure: 28.85"   Gusts: NA
Location:  63.44°N, 20.27°W
Report Text: BIRK 260300Z VRB02KT 9999 FEW050 SCT062 01/M03 Q0977
Loading
Personal Weather Stations






























Interactive Weather Map
Tropical Storm Tracking
New forecast layout! Learn more

10-Day Weather Forecast

Advertisements
Track Severe Weather on mobile